Time+03,TemperatureF,Dew PointF,Humidity,Sea Level PressureIn,VisibilityMPH,Wind Direction,Wind SpeedMPH,Gust SpeedMPH,PrecipitationIn,Events,Conditions,WindDirDegrees,DateUTC
12:00 AM,68.0,59.0,73,29.95,-9999.0,North,4.6,-,N/A,,Clear,10,2013-02-19 21:00:00
12:30 AM,66.2,59.0,78,29.95,-9999.0,NNW,8.1,-,N/A,,Clear,340,2013-02-19 21:30:00
1:00 AM,66.2,57.2,73,29.95,-9999.0,NNW,8.1,-,N/A,,Clear,340,2013-02-19 22:00:00
1:30 AM,66.2,57.2,73,29.95,-9999.0,NNW,8.1,-,N/A,,Clear,330,2013-02-19 22:30:00
2:00 AM,66.2,57.2,73,29.95,-9999.0,NW,5.8,-,N/A,,Clear,320,2013-02-19 23:00:00
3:00 AM,66,56,62,29.94,6,North,10.4,,,,Partly Cloudy,350,2013-02-20 00:00:00
3:30 AM,66.2,57.2,73,29.92,-9999.0,NNW,13.8,-,N/A,,Clear,340,2013-02-20 00:30:00
4:00 AM,66.2,59.0,78,29.95,-9999.0,North,15.0,-,N/A,,Clear,350,2013-02-20 01:00:00
4:30 AM,68.0,57.2,68,29.95,-9999.0,North,17.3,-,N/A,,Clear,350,2013-02-20 01:30:00
5:00 AM,68.0,59.0,73,29.98,-9999.0,NNW,11.5,-,N/A,,Clear,330,2013-02-20 02:00:00
5:30 AM,68.0,57.2,68,29.98,-9999.0,North,15.0,-,N/A,,Clear,360,2013-02-20 02:30:00
6:00 AM,68.0,57.2,68,29.98,-9999.0,North,11.5,-,N/A,,Clear,10,2013-02-20 03:00:00
6:30 AM,69.8,59.0,68,30.01,6.2,North,11.5,-,N/A,,Scattered Clouds,10,2013-02-20 03:30:00
7:00 AM,69.8,57.2,64,30.01,6.2,North,13.8,-,N/A,,Scattered Clouds,10,2013-02-20 04:00:00
7:30 AM,69.8,59.0,68,30.04,6.2,North,12.7,-,N/A,,Scattered Clouds,360,2013-02-20 04:30:00
8:00 AM,71.6,59.0,64,30.04,6.2,North,11.5,-,N/A,,Scattered Clouds,10,2013-02-20 05:00:00
9:00 AM,72,60,56,30.09,10,NNE,11.5,,,,Scattered Clouds,20,2013-02-20 06:00:00
9:00 AM,71.6,59.0,64,30.09,6.2,NNE,11.5,-,N/A,,Scattered Clouds,20,2013-02-20 06:00:00
9:30 AM,71.6,59.0,64,30.06,6.2,NNE,10.4,-,N/A,Rain,Light Rain,30,2013-02-20 06:30:00
10:00 AM,73.4,60.8,65,30.06,-9999.0,ENE,10.4,-,N/A,,Clear,60,2013-02-20 07:00:00
10:30 AM,73.4,59.0,61,30.04,-9999.0,NE,11.5,-,N/A,,Clear,50,2013-02-20 07:30:00
11:00 AM,75.2,57.2,53,30.04,-9999.0,ENE,12.7,-,N/A,,Clear,70,2013-02-20 08:00:00
12:00 PM,77.0,59.0,54,30.01,-9999.0,ENE,10.4,-,N/A,,Clear,70,2013-02-20 09:00:00
12:30 PM,75.2,57.2,53,30.01,-9999.0,NE,8.1,-,N/A,,Clear,40,2013-02-20 09:30:00
1:00 PM,75.2,57.2,53,30.01,-9999.0,North,9.2,-,N/A,,Clear,10,2013-02-20 10:00:00
6:30 PM,71.6,57.2,60,30.01,-9999.0,North,11.5,-,N/A,,Clear,360,2013-02-20 15:30:00
7:00 PM,71.6,55.4,57,30.04,-9999.0,NNW,10.4,-,N/A,,Clear,340,2013-02-20 16:00:00
7:30 PM,69.8,55.4,60,30.04,-9999.0,North,11.5,-,N/A,,Clear,350,2013-02-20 16:30:00
8:00 PM,69.8,53.6,56,30.04,-9999.0,NNW,11.5,-,N/A,,Clear,340,2013-02-20 17:00:00
8:30 PM,69.8,51.8,53,30.06,-9999.0,NNW,11.5,-,N/A,,Clear,330,2013-02-20 17:30:00
9:00 PM,69,52,44,30.06,9,NNW,10.4,,,,,330,2013-02-20 18:00:00
9:00 PM,68.0,51.8,56,30.06,-9999.0,NNW,10.4,-,N/A,,Clear,330,2013-02-20 18:00:00
10:00 PM,68.0,51.8,56,30.04,-9999.0,NNW,10.4,-,N/A,,Clear,330,2013-02-20 19:00:00
11:00 PM,68.0,53.6,60,30.04,-9999.0,NW,8.1,-,N/A,,Clear,320,2013-02-20 20:00:00